Time;durP1;ratioP1;P1;durP2;ratioP2;P2;SDS_P1;SDS_P2;PMS_P1;PMS_P2;Temp;Humidity;BMP_temperature;BMP_pressure;BME280_temperature;BME280_humidity;BME280_pressure;Samples;Min_cycle;Max_cycle;Signal;HPM_P1;HPM_P2
2022/03/25 00:01:22;;;;;;;19.63;14.03;;;5.90;99.90;;;;;;4989077;28;20194;-79
2022/03/25 00:03:49;;;;;;;17.87;12.40;;;5.90;99.90;;;;;;4979437;28;20205;-78
2022/03/25 00:06:17;;;;;;;17.97;12.97;;;5.80;99.90;;;;;;4989751;28;20198;-80
2022/03/25 00:08:44;;;;;;;18.23;12.40;;;5.80;99.90;;;;;;4986317;28;20698;-80
2022/03/25 00:11:12;;;;;;;20.03;13.67;;;5.70;99.90;;;;;;4989683;28;20678;-79
2022/03/25 00:13:39;;;;;;;18.20;13.27;;;5.60;99.90;;;;;;4983264;28;20698;-80
2022/03/25 00:16:07;;;;;;;18.03;14.93;;;5.50;99.90;;;;;;4989962;28;20212;-80
2022/03/25 00:18:34;;;;;;;21.07;16.90;;;5.40;99.90;;;;;;4985361;28;20734;-82
2022/03/25 00:21:01;;;;;;;21.17;16.27;;;5.30;99.90;;;;;;4977743;28;20206;-80
2022/03/25 00:23:28;;;;;;;22.53;15.83;;;5.20;99.90;;;;;;4991744;28;20643;-79
2022/03/25 00:25:57;;;;;;;25.13;16.50;;;5.10;99.90;;;;;;4978867;28;20219;-80
2022/03/25 00:28:25;;;;;;;24.03;17.47;;;5.10;99.90;;;;;;4993085;28;20618;-79
2022/03/25 00:30:52;;;;;;;22.27;16.40;;;5.00;99.90;;;;;;4987493;28;20220;-80
2022/03/25 00:33:19;;;;;;;24.67;16.33;;;5.00;99.90;;;;;;4996348;28;20234;-79
2022/03/25 00:35:46;;;;;;;23.73;16.83;;;4.90;99.90;;;;;;4984205;28;20226;-78
2022/03/25 00:38:13;;;;;;;22.20;16.50;;;4.80;99.90;;;;;;4977208;28;20206;-79
2022/03/25 00:40:40;;;;;;;26.77;17.03;;;4.80;99.90;;;;;;4992487;28;20202;-80
2022/03/25 00:43:07;;;;;;;22.97;16.33;;;4.80;99.90;;;;;;4978570;28;20195;-79
2022/03/25 00:45:35;;;;;;;20.43;16.40;;;4.80;99.90;;;;;;4993208;28;20265;-81
2022/03/25 00:48:04;;;;;;;24.37;16.67;;;4.80;99.90;;;;;;4979889;28;20616;-80
2022/03/25 00:50:31;;;;;;;25.37;18.40;;;4.90;99.90;;;;;;4992848;28;20312;-78
2022/03/25 00:52:57;;;;;;;27.30;17.47;;;4.90;99.90;;;;;;4979438;28;20222;-81
2022/03/25 00:55:25;;;;;;;25.10;18.67;;;4.90;99.90;;;;;;4993585;28;20209;-79
2022/03/25 00:57:52;;;;;;;22.63;16.57;;;4.90;99.90;;;;;;4983066;28;20206;-79
2022/03/25 01:00:20;;;;;;;20.37;16.37;;;4.80;99.90;;;;;;4977813;28;20770;-79
2022/03/25 01:02:49;;;;;;;20.80;17.10;;;4.80;99.90;;;;;;4987559;28;20191;-81
2022/03/25 01:05:17;;;;;;;23.30;17.10;;;4.70;99.90;;;;;;4978869;28;20206;-81
2022/03/25 01:07:44;;;;;;;25.13;17.30;;;4.70;99.90;;;;;;4992358;28;20208;-80
2022/03/25 01:10:11;;;;;;;22.37;16.53;;;4.70;99.90;;;;;;4986563;28;20220;-82
2022/03/25 01:12:38;;;;;;;21.33;16.87;;;4.70;99.90;;;;;;4980509;28;20214;-79
2022/03/25 01:15:07;;;;;;;29.10;17.20;;;4.60;99.90;;;;;;4979796;28;20199;-79
2022/03/25 01:17:33;;;;;;;20.47;15.60;;;4.50;99.90;;;;;;4982283;28;20205;-79
2022/03/25 01:20:02;;;;;;;21.47;17.17;;;4.40;99.90;;;;;;4985680;28;20223;-79
2022/03/25 01:22:28;;;;;;;23.70;16.87;;;4.30;99.90;;;;;;4981288;28;20205;-79
2022/03/25 01:24:56;;;;;;;23.33;17.57;;;4.20;99.90;;;;;;4988762;28;20226;-79
2022/03/25 01:27:23;;;;;;;23.50;16.90;;;4.10;99.90;;;;;;4981531;28;20271;-79
2022/03/25 01:29:50;;;;;;;20.77;16.57;;;4.00;99.90;;;;;;4991907;28;20236;-80
2022/03/25 01:32:17;;;;;;;20.60;16.00;;;3.90;99.90;;;;;;4978424;28;20198;-80
2022/03/25 01:34:46;;;;;;;21.77;15.40;;;3.80;99.90;;;;;;4989708;28;20606;-80
2022/03/25 01:37:15;;;;;;;21.97;16.60;;;3.80;99.90;;;;;;4983267;28;20285;-79
2022/03/25 01:39:42;;;;;;;20.80;16.40;;;3.70;99.90;;;;;;4983550;28;20744;-79
2022/03/25 01:42:10;;;;;;;19.87;15.63;;;3.60;99.90;;;;;;4985828;28;20239;-79
2022/03/25 01:44:37;;;;;;;22.00;16.33;;;3.60;99.90;;;;;;4985333;28;20201;-80
2022/03/25 01:47:08;;;;;;;24.50;16.87;;;3.50;99.90;;;;;;4989490;28;20576;-78
2022/03/25 01:49:35;;;;;;;23.37;16.70;;;3.50;99.90;;;;;;4986932;28;20593;-79
2022/03/25 01:52:03;;;;;;;21.90;17.03;;;3.40;99.90;;;;;;4984578;28;20240;-78
2022/03/25 01:54:34;;;;;;;20.03;14.73;;;3.40;99.90;;;;;;4983174;28;20233;-81
2022/03/25 01:57:05;;;;;;;19.47;14.40;;;3.40;99.90;;;;;;4988149;28;20200;-78
2022/03/25 01:59:32;;;;;;;19.80;14.63;;;3.40;99.90;;;;;;5005603;23;20590;-76
2022/03/25 02:02:00;;;;;;;18.60;14.77;;;3.40;99.90;;;;;;4997860;28;20198;-77
2022/03/25 02:04:34;;;;;;;21.90;17.23;;;3.40;99.90;;;;;;4997851;28;20192;-76
2022/03/25 02:07:01;;;;;;;28.07;19.00;;;3.40;99.90;;;;;;4998202;28;20448;-76
2022/03/25 02:09:28;;;;;;;23.20;16.43;;;3.40;99.90;;;;;;4998429;28;20232;-76
2022/03/25 02:12:00;;;;;;;24.60;18.37;;;3.40;99.90;;;;;;4981665;28;20459;-76
2022/03/25 02:14:27;;;;;;;26.93;19.53;;;3.40;99.90;;;;;;4978486;28;20306;-76
2022/03/25 02:16:54;;;;;;;23.97;17.93;;;3.50;99.90;;;;;;4979992;28;20847;-76
2022/03/25 02:19:25;;;;;;;25.03;19.37;;;3.50;99.90;;;;;;4982942;28;20982;-76
2022/03/25 02:21:53;;;;;;;24.40;17.80;;;3.50;99.90;;;;;;4985636;28;21036;-76
2022/03/25 02:24:30;;;;;;;25.37;18.73;;;3.50;99.90;;;;;;4988492;28;20440;-76
2022/03/25 02:26:59;;;;;;;23.23;18.03;;;3.50;99.90;;;;;;4980026;28;20546;-76
2022/03/25 02:29:25;;;;;;;23.60;18.40;;;3.40;99.90;;;;;;4991139;28;20829;-75
2022/03/25 02:31:52;;;;;;;22.63;18.10;;;3.40;99.90;;;;;;4987053;28;20439;-76
2022/03/25 02:34:19;;;;;;;22.80;16.67;;;3.40;99.90;;;;;;4985021;28;20507;-76
2022/03/25 02:36:47;;;;;;;26.97;19.23;;;3.30;99.90;;;;;;4983478;28;20507;-76
2022/03/25 02:39:17;;;;;;;24.87;19.17;;;3.30;99.90;;;;;;4982691;28;20484;-76
2022/03/25 02:41:46;;;;;;;23.03;17.90;;;3.30;99.90;;;;;;4987583;28;20457;-76
2022/03/25 02:44:13;;;;;;;21.23;17.30;;;3.30;99.90;;;;;;4987642;28;20895;-76
2022/03/25 02:46:45;;;;;;;19.57;16.27;;;3.20;99.90;;;;;;4979622;28;20452;-76
2022/03/25 02:49:12;;;;;;;22.37;17.07;;;3.10;99.90;;;;;;4988777;28;20476;-76
2022/03/25 02:51:39;;;;;;;19.27;15.53;;;3.10;99.90;;;;;;4994923;28;20487;-76
2022/03/25 02:54:06;;;;;;;22.10;17.40;;;3.00;99.90;;;;;;4993381;28;20484;-76
2022/03/25 02:56:34;;;;;;;22.80;16.60;;;2.90;99.90;;;;;;4982376;28;20467;-76
2022/03/25 02:59:01;;;;;;;21.70;17.00;;;2.90;99.90;;;;;;4986367;28;20523;-76
2022/03/25 03:01:28;;;;;;;23.77;17.20;;;2.80;99.90;;;;;;4985699;28;20856;-76
2022/03/25 03:03:55;;;;;;;21.77;16.80;;;2.80;99.90;;;;;;4985231;28;20716;-76
2022/03/25 03:06:22;;;;;;;20.70;17.47;;;2.80;99.90;;;;;;4983351;28;20513;-76
2022/03/25 03:08:48;;;;;;;20.77;17.17;;;2.80;99.90;;;;;;4988852;28;20442;-76
2022/03/25 03:11:16;;;;;;;19.47;15.23;;;2.70;99.90;;;;;;4988896;28;20436;-76
2022/03/25 03:13:44;;;;;;;18.73;15.57;;;2.70;99.90;;;;;;4978406;28;20469;-76
2022/03/25 03:16:11;;;;;;;21.23;16.07;;;2.70;99.90;;;;;;4977961;28;20452;-76
2022/03/25 03:18:38;;;;;;;21.80;16.33;;;2.60;99.90;;;;;;4978621;28;20438;-76
2022/03/25 03:21:05;;;;;;;19.17;15.43;;;2.60;99.90;;;;;;4989291;28;20462;-76
2022/03/25 03:23:31;;;;;;;19.27;15.53;;;2.60;99.90;;;;;;4986666;28;21019;-76
2022/03/25 03:25:59;;;;;;;25.90;17.83;;;2.60;99.90;;;;;;4986438;28;20449;-76
2022/03/25 03:28:26;;;;;;;23.43;18.70;;;2.60;99.90;;;;;;4983831;28;20850;-76
2022/03/25 03:30:54;;;;;;;24.37;18.90;;;2.60;99.90;;;;;;4979887;28;20460;-76
2022/03/25 03:33:21;;;;;;;26.70;19.13;;;2.70;99.90;;;;;;4979593;28;20543;-76
2022/03/25 03:35:48;;;;;;;24.87;18.60;;;2.80;99.90;;;;;;4972609;28;20791;-76
2022/03/25 03:38:14;;;;;;;26.67;18.57;;;2.90;99.90;;;;;;4971029;28;20452;-76
2022/03/25 03:40:41;;;;;;;21.93;17.50;;;2.90;99.90;;;;;;4991311;28;20975;-77
2022/03/25 03:43:09;;;;;;;24.73;17.57;;;3.00;99.90;;;;;;4986650;28;20475;-77
2022/03/25 03:45:36;;;;;;;21.13;16.07;;;3.00;99.90;;;;;;4966798;28;20442;-77
2022/03/25 03:48:05;;;;;;;23.87;17.73;;;3.00;99.90;;;;;;4971043;28;20477;-78
2022/03/25 03:50:32;;;;;;;22.10;16.70;;;3.00;99.90;;;;;;4986021;28;20539;-77
2022/03/25 03:52:59;;;;;;;22.10;17.20;;;2.90;99.90;;;;;;4973306;28;20521;-79
2022/03/25 03:55:26;;;;;;;20.90;17.23;;;2.90;99.90;;;;;;4969795;28;20504;-76
2022/03/25 03:58:11;;;;;;;24.87;19.17;;;2.90;99.90;;;;;;4961231;28;21028;-74
2022/03/25 04:00:38;;;;;;;21.73;18.07;;;2.90;99.90;;;;;;4975980;28;20480;-74
2022/03/25 04:03:07;;;;;;;23.80;17.70;;;2.90;99.90;;;;;;4986421;28;20478;-75
2022/03/25 04:05:34;;;;;;;27.27;19.73;;;2.90;99.90;;;;;;4984477;28;20441;-75
2022/03/25 04:08:00;;;;;;;28.13;20.83;;;2.90;99.90;;;;;;4961487;28;20463;-75
2022/03/25 04:10:27;;;;;;;23.27;17.57;;;2.90;99.90;;;;;;4970892;28;21026;-74
2022/03/25 04:12:54;;;;;;;19.97;17.53;;;2.90;99.90;;;;;;4977333;28;20446;-75
2022/03/25 04:15:21;;;;;;;20.17;16.80;;;2.80;99.90;;;;;;4977169;28;20494;-79
2022/03/25 04:17:48;;;;;;;22.03;16.53;;;2.70;99.90;;;;;;4968772;28;20454;-76
2022/03/25 04:20:18;;;;;;;23.07;16.93;;;2.50;99.90;;;;;;4966276;28;20536;-76
2022/03/25 04:22:46;;;;;;;22.73;18.60;;;2.40;99.90;;;;;;4986685;28;20526;-76
2022/03/25 04:25:14;;;;;;;22.17;18.97;;;2.40;99.90;;;;;;4983549;28;20469;-76
2022/03/25 04:27:52;;;;;;;23.97;18.83;;;2.30;99.90;;;;;;4989478;28;20448;-77
2022/03/25 04:30:20;;;;;;;23.67;19.20;;;2.30;99.90;;;;;;4987114;28;20468;-76
2022/03/25 04:32:47;;;;;;;21.07;17.90;;;2.30;99.90;;;;;;4980886;28;20432;-77
2022/03/25 04:35:15;;;;;;;23.97;18.57;;;2.30;99.90;;;;;;4989378;28;20541;-74
2022/03/25 04:37:42;;;;;;;27.07;18.73;;;2.30;99.90;;;;;;4978023;28;20487;-74
2022/03/25 04:40:10;;;;;;;20.77;17.33;;;2.30;99.90;;;;;;4975274;28;20523;-75
2022/03/25 04:42:37;;;;;;;21.10;17.10;;;2.40;99.90;;;;;;4976399;28;20806;-75
2022/03/25 04:45:05;;;;;;;23.90;19.03;;;2.40;99.90;;;;;;4981451;28;20437;-74
2022/03/25 04:47:32;;;;;;;24.20;18.53;;;2.50;99.90;;;;;;4979928;28;20506;-75
2022/03/25 04:49:58;;;;;;;23.70;18.40;;;2.50;99.90;;;;;;4981272;28;20462;-75
2022/03/25 04:52:27;;;;;;;28.27;20.17;;;2.50;99.90;;;;;;4986363;28;20853;-75
2022/03/25 04:54:53;;;;;;;25.33;18.87;;;2.60;99.90;;;;;;4978388;28;20480;-75
2022/03/25 04:57:21;;;;;;;26.83;19.50;;;2.60;99.90;;;;;;4987222;28;20467;-75
2022/03/25 04:59:48;;;;;;;25.03;18.03;;;2.60;99.90;;;;;;4979282;28;20566;-75
2022/03/25 05:02:15;;;;;;;27.33;19.77;;;2.50;99.90;;;;;;4984111;28;20535;-75
2022/03/25 05:04:42;;;;;;;23.07;18.17;;;2.50;99.90;;;;;;4990384;28;20436;-75
2022/03/25 05:07:14;;;;;;;26.47;18.67;;;2.50;99.90;;;;;;4985227;28;20442;-75
2022/03/25 05:09:42;;;;;;;24.73;18.90;;;2.50;99.90;;;;;;4977625;28;20574;-75
2022/03/25 05:12:10;;;;;;;22.70;18.10;;;2.50;99.90;;;;;;4978744;28;20439;-75
2022/03/25 05:14:37;;;;;;;25.83;20.17;;;2.50;99.90;;;;;;4969096;28;20471;-75
2022/03/25 05:17:04;;;;;;;24.70;19.57;;;2.50;99.90;;;;;;4977148;28;20491;-75
2022/03/25 05:19:31;;;;;;;26.47;19.70;;;2.60;99.90;;;;;;4984114;28;20494;-75
2022/03/25 05:21:58;;;;;;;23.83;18.10;;;2.60;99.90;;;;;;4986842;28;21079;-75
2022/03/25 05:24:25;;;;;;;23.60;18.13;;;2.60;99.90;;;;;;4988219;28;20447;-75
2022/03/25 05:26:56;;;;;;;30.07;19.17;;;2.70;99.90;;;;;;4986428;28;20486;-75
2022/03/25 05:29:23;;;;;;;25.23;20.13;;;2.70;99.90;;;;;;4980987;28;20463;-75
2022/03/25 05:31:50;;;;;;;24.23;17.77;;;2.80;99.90;;;;;;4979206;28;20435;-75
2022/03/25 05:34:17;;;;;;;23.43;18.47;;;2.80;99.90;;;;;;4978537;28;20557;-75
2022/03/25 05:36:44;;;;;;;27.20;20.07;;;2.90;99.90;;;;;;4984354;28;20439;-75
2022/03/25 05:39:11;;;;;;;27.03;19.47;;;3.00;99.90;;;;;;4985503;28;20515;-75
2022/03/25 05:41:38;;;;;;;27.90;20.43;;;2.90;99.90;;;;;;4990147;28;20832;-74
2022/03/25 05:44:06;;;;;;;25.07;18.27;;;2.90;99.90;;;;;;4982093;28;20507;-74
2022/03/25 05:46:34;;;;;;;22.17;18.10;;;2.90;99.90;;;;;;4980868;28;20458;-75
2022/03/25 05:49:01;;;;;;;25.80;19.00;;;2.90;99.90;;;;;;4981382;28;20460;-75
2022/03/25 05:51:29;;;;;;;25.43;20.13;;;2.90;99.90;;;;;;4980651;28;20446;-75
2022/03/25 05:53:56;;;;;;;24.97;19.10;;;3.00;99.90;;;;;;4982992;28;20484;-75
2022/03/25 05:56:22;;;;;;;26.13;17.90;;;3.10;99.90;;;;;;4989101;28;20448;-75
2022/03/25 05:58:49;;;;;;;21.00;16.67;;;3.30;99.90;;;;;;4983380;28;20806;-75
2022/03/25 06:01:17;;;;;;;21.97;16.57;;;3.50;99.90;;;;;;4980219;28;20441;-75
2022/03/25 06:03:44;;;;;;;22.23;16.63;;;3.80;99.90;;;;;;4980053;28;20510;-75
2022/03/25 06:06:11;;;;;;;21.27;16.33;;;4.10;99.90;;;;;;4987913;28;20902;-78
2022/03/25 06:08:38;;;;;;;23.13;16.50;;;4.30;99.90;;;;;;4985235;28;20467;-75
2022/03/25 06:11:05;;;;;;;23.10;18.10;;;4.60;99.90;;;;;;4984000;28;20457;-76
2022/03/25 06:13:32;;;;;;;20.93;17.00;;;4.80;99.90;;;;;;4990088;28;20202;-76
2022/03/25 06:15:59;;;;;;;21.77;17.03;;;5.00;99.90;;;;;;4984430;28;20484;-76
2022/03/25 06:18:27;;;;;;;23.67;18.13;;;5.10;99.90;;;;;;4981407;28;20208;-76
2022/03/25 06:20:54;;;;;;;23.30;17.27;;;5.20;99.90;;;;;;4978249;28;20220;-76
2022/03/25 06:23:21;;;;;;;22.47;16.13;;;5.40;99.90;;;;;;4988043;28;20674;-76
2022/03/25 06:25:48;;;;;;;21.27;15.77;;;5.70;99.90;;;;;;4987625;28;20190;-76
2022/03/25 06:28:15;;;;;;;21.93;15.30;;;5.90;99.90;;;;;;4984506;28;20230;-76
2022/03/25 06:30:43;;;;;;;23.77;17.07;;;6.00;99.90;;;;;;4990296;28;20218;-76
2022/03/25 06:33:11;;;;;;;20.17;16.23;;;6.00;99.90;;;;;;4988424;28;20197;-76
2022/03/25 06:35:40;;;;;;;22.43;16.23;;;6.00;99.90;;;;;;4978351;28;20228;-76
2022/03/25 06:38:07;;;;;;;21.60;16.50;;;6.10;99.90;;;;;;4982687;28;20205;-76
2022/03/25 06:40:34;;;;;;;23.20;17.97;;;6.30;99.90;;;;;;4983158;28;20225;-76
2022/03/25 06:43:01;;;;;;;24.17;18.47;;;6.40;99.90;;;;;;4989551;28;20250;-76
2022/03/25 06:45:28;;;;;;;22.57;16.20;;;6.50;99.90;;;;;;4991386;28;20199;-76
2022/03/25 06:47:55;;;;;;;21.60;15.40;;;6.60;99.90;;;;;;4985638;28;20679;-76
2022/03/25 06:50:24;;;;;;;23.77;16.90;;;6.90;99.90;;;;;;4987431;28;20272;-76
2022/03/25 06:52:53;;;;;;;22.83;18.00;;;7.00;99.90;;;;;;4984109;28;20610;-76
2022/03/25 06:55:21;;;;;;;22.60;17.33;;;7.10;99.90;;;;;;4982861;28;20217;-75
2022/03/25 06:57:50;;;;;;;22.30;17.13;;;7.20;99.90;;;;;;4986990;28;20498;-76
2022/03/25 07:00:18;;;;;;;24.93;18.03;;;7.30;99.90;;;;;;4987904;28;20242;-76
2022/03/25 07:02:46;;;;;;;25.10;18.23;;;7.50;99.90;;;;;;4979712;28;20204;-76
2022/03/25 07:05:14;;;;;;;22.57;18.53;;;7.70;99.90;;;;;;4988294;28;20199;-76
2022/03/25 07:07:43;;;;;;;21.50;17.83;;;8.00;99.90;;;;;;4985771;28;20209;-76
2022/03/25 07:10:14;;;;;;;23.10;19.03;;;8.30;99.90;;;;;;4983985;28;20225;-76
2022/03/25 07:12:42;;;;;;;23.20;16.90;;;8.60;99.90;;;;;;4979526;28;20250;-76
2022/03/25 07:15:10;;;;;;;26.80;18.23;;;8.60;99.90;;;;;;4993068;28;20217;-77
2022/03/25 07:17:38;;;;;;;25.30;17.87;;;8.70;99.90;;;;;;4994657;28;20205;-77
2022/03/25 07:20:06;;;;;;;21.37;15.63;;;9.10;99.90;;;;;;4981802;28;20244;-77
2022/03/25 07:22:34;;;;;;;22.33;16.93;;;9.60;99.90;;;;;;4980820;28;20252;-76
2022/03/25 07:25:01;;;;;;;25.33;17.53;;;9.90;99.90;;;;;;4983694;28;20199;-76
2022/03/25 07:27:29;;;;;;;23.47;16.70;;;10.30;99.90;;;;;;4985168;28;20203;-77
2022/03/25 07:29:57;;;;;;;22.27;15.93;;;10.60;99.90;;;;;;4992247;28;20220;-77
2022/03/25 07:32:24;;;;;;;22.40;16.37;;;11.00;99.70;;;;;;4989891;28;20206;-77
2022/03/25 07:34:51;;;;;;;18.63;15.43;;;11.20;99.30;;;;;;4988256;28;20636;-77
2022/03/25 07:37:18;;;;;;;24.37;16.70;;;11.40;98.70;;;;;;4983356;28;20207;-77
2022/03/25 07:39:45;;;;;;;18.87;14.57;;;11.50;98.40;;;;;;4981585;28;20216;-77
2022/03/25 07:42:12;;;;;;;20.97;14.77;;;11.60;98.30;;;;;;4990532;28;20335;-77
2022/03/25 07:44:41;;;;;;;22.97;17.37;;;11.90;97.90;;;;;;4977372;28;20193;-77
2022/03/25 07:47:09;;;;;;;22.03;16.47;;;12.00;98.30;;;;;;4982794;28;20198;-77
2022/03/25 07:49:38;;;;;;;22.97;17.30;;;12.20;98.10;;;;;;4983988;28;20708;-77
2022/03/25 07:52:06;;;;;;;22.13;17.43;;;12.50;97.70;;;;;;4981978;28;20198;-77
2022/03/25 07:54:33;;;;;;;23.30;17.17;;;12.70;97.00;;;;;;4986863;28;20429;-77
2022/03/25 07:57:00;;;;;;;22.50;17.77;;;12.90;96.40;;;;;;4983970;28;20202;-77
2022/03/25 07:59:27;;;;;;;25.93;17.73;;;13.00;96.20;;;;;;5014754;23;20322;-80
2022/03/25 08:01:56;;;;;;;24.97;17.93;;;13.20;96.00;;;;;;5008525;28;20196;-81
2022/03/25 08:04:24;;;;;;;25.03;17.87;;;13.30;95.60;;;;;;5010601;28;20247;-81
2022/03/25 08:06:51;;;;;;;19.47;16.10;;;13.60;96.00;;;;;;5005577;28;20673;-80
2022/03/25 08:09:18;;;;;;;24.07;18.17;;;13.70;95.40;;;;;;5010109;28;20579;-80
2022/03/25 08:11:45;;;;;;;22.77;16.37;;;13.80;94.90;;;;;;5009162;28;20255;-81
2022/03/25 08:14:13;;;;;;;26.47;18.17;;;14.00;94.50;;;;;;5006977;28;20221;-80
2022/03/25 08:16:40;;;;;;;31.97;18.87;;;14.20;94.40;;;;;;5011486;28;20220;-81
2022/03/25 08:19:08;;;;;;;23.47;18.17;;;14.00;93.60;;;;;;5009230;28;20539;-79
2022/03/25 08:21:35;;;;;;;26.67;19.03;;;14.30;94.40;;;;;;5007374;28;20202;-80
2022/03/25 08:29:30;;;;;;;23.13;18.33;;;15.00;93.50;;;;;;5009004;28;20212;-79
2022/03/25 08:31:57;;;;;;;24.30;18.43;;;15.00;93.20;;;;;;5007423;28;20197;-80
2022/03/25 08:34:26;;;;;;;24.33;17.50;;;15.30;92.20;;;;;;5008584;28;20201;-81
2022/03/25 08:36:53;;;;;;;26.33;18.70;;;15.60;92.20;;;;;;5009655;28;20557;-82
2022/03/25 08:39:20;;;;;;;23.30;16.30;;;15.80;91.60;;;;;;5013487;28;20223;-81
2022/03/25 08:41:46;;;;;;;21.80;16.27;;;16.00;91.40;;;;;;5009706;28;20207;-81
2022/03/25 08:44:14;;;;;;;23.87;18.13;;;16.10;91.20;;;;;;5007047;28;20560;-81
2022/03/25 08:46:41;;;;;;;22.37;17.00;;;16.00;90.90;;;;;;5010389;28;20208;-81
2022/03/25 08:49:10;;;;;;;22.33;17.10;;;16.30;91.40;;;;;;5010115;28;20231;-81
2022/03/25 08:51:38;;;;;;;24.17;17.33;;;16.50;91.20;;;;;;5010115;28;20208;-81
2022/03/25 08:54:05;;;;;;;23.63;18.27;;;16.70;91.10;;;;;;5011873;28;20195;-80
2022/03/25 08:56:34;;;;;;;30.93;19.17;;;16.90;90.20;;;;;;5009530;28;20220;-81
2022/03/25 08:59:01;;;;;;;28.03;18.53;;;17.10;90.20;;;;;;5011576;28;20192;-80
2022/03/25 09:01:28;;;;;;;21.03;16.03;;;17.20;89.40;;;;;;5005475;28;20233;-80
2022/03/25 09:03:55;;;;;;;23.37;17.10;;;17.30;89.70;;;;;;5006869;28;20216;-81
2022/03/25 09:06:23;;;;;;;21.37;16.83;;;17.40;89.20;;;;;;5008389;28;20676;-80
2022/03/25 09:08:51;;;;;;;24.47;18.23;;;17.50;89.80;;;;;;5012008;28;20192;-80
2022/03/25 09:11:19;;;;;;;26.37;18.63;;;17.40;88.80;;;;;;5012096;28;20278;-79
2022/03/25 09:13:46;;;;;;;27.33;17.87;;;17.50;88.40;;;;;;5005469;28;20661;-80
2022/03/25 09:16:14;;;;;;;28.07;19.27;;;17.70;87.70;;;;;;5010744;28;20282;-82
2022/03/25 09:18:41;;;;;;;26.13;19.60;;;17.60;88.60;;;;;;5007353;28;20291;-80
2022/03/25 09:21:08;;;;;;;22.67;17.37;;;17.80;88.10;;;;;;5007152;28;20223;-82
2022/03/25 09:23:35;;;;;;;25.43;19.40;;;18.10;87.60;;;;;;5011092;28;20624;-80
2022/03/25 09:26:03;;;;;;;25.63;19.90;;;18.20;86.20;;;;;;5008797;28;20547;-79
2022/03/25 09:28:30;;;;;;;22.97;17.93;;;18.10;84.10;;;;;;5008143;28;20280;-84
2022/03/25 09:30:57;;;;;;;24.83;19.33;;;18.30;84.20;;;;;;5007586;28;20224;-81
2022/03/25 09:33:24;;;;;;;27.97;19.70;;;18.10;82.60;;;;;;5008641;28;20208;-80
2022/03/25 09:35:51;;;;;;;27.40;20.53;;;18.30;83.50;;;;;;5008361;28;20303;-79
2022/03/25 09:38:18;;;;;;;29.23;20.93;;;18.40;80.90;;;;;;5007263;28;20206;-81
2022/03/25 09:40:47;;;;;;;29.73;21.73;;;18.40;79.70;;;;;;5009642;28;20217;-81
2022/03/25 09:43:18;;;;;;;28.53;20.83;;;18.20;82.30;;;;;;5008561;28;20225;-80
2022/03/25 09:45:45;;;;;;;27.40;20.43;;;18.10;82.30;;;;;;5009377;28;20201;-79
2022/03/25 09:48:13;;;;;;;28.70;21.53;;;18.40;81.00;;;;;;5009366;28;20193;-81
2022/03/25 09:50:40;;;;;;;27.17;22.67;;;18.20;80.50;;;;;;5003527;28;20217;-80
2022/03/25 09:53:08;;;;;;;29.83;23.20;;;18.20;81.50;;;;;;5003271;28;20203;-79
2022/03/25 09:55:40;;;;;;;28.03;22.67;;;18.00;81.40;;;;;;5009331;28;20223;-82
2022/03/25 09:58:07;;;;;;;29.10;25.13;;;17.90;83.00;;;;;;5006405;28;20665;-81
2022/03/25 10:00:36;;;;;;;30.20;24.40;;;17.70;81.30;;;;;;5009787;28;20223;-82
2022/03/25 10:03:03;;;;;;;27.47;21.90;;;17.70;84.40;;;;;;5006264;28;20223;-79
2022/03/25 10:05:30;;;;;;;27.43;23.30;;;18.00;84.30;;;;;;5001830;28;20226;-80
2022/03/25 10:07:57;;;;;;;26.03;21.50;;;17.90;81.40;;;;;;4998311;28;20792;-81
2022/03/25 10:10:26;;;;;;;31.40;23.87;;;17.90;79.10;;;;;;5006422;28;20253;-80
2022/03/25 10:13:00;;;;;;;28.03;23.17;;;17.70;80.80;;;;;;5008898;28;20208;-80
2022/03/25 10:15:28;;;;;;;28.83;23.97;;;17.70;81.90;;;;;;5009306;28;20297;-80
2022/03/25 10:17:58;;;;;;;29.33;23.43;;;17.50;81.90;;;;;;5007019;28;20194;-81
2022/03/25 10:20:27;;;;;;;24.33;21.57;;;17.60;82.70;;;;;;5008150;28;20225;-81
2022/03/25 10:23:01;;;;;;;26.83;23.10;;;17.80;83.10;;;;;;5006278;28;20201;-82
2022/03/25 10:25:43;;;;;;;29.23;22.70;;;17.80;82.20;;;;;;5002651;28;20586;-82
2022/03/25 10:28:28;;;;;;;28.93;23.70;;;17.60;81.60;;;;;;5008956;28;20198;-80
2022/03/25 10:30:57;;;;;;;27.97;22.10;;;17.20;83.00;;;;;;5001022;28;20224;-80
2022/03/25 10:33:28;;;;;;;27.33;22.10;;;17.30;82.90;;;;;;5002769;28;20461;-82
2022/03/25 10:36:01;;;;;;;29.63;22.60;;;17.00;83.00;;;;;;5006707;28;20224;-81
2022/03/25 10:38:40;;;;;;;27.57;20.07;;;17.00;82.60;;;;;;5008444;28;20194;-78
2022/03/25 10:41:08;;;;;;;26.83;20.90;;;16.90;83.00;;;;;;5008361;28;20561;-80
2022/03/25 10:43:34;;;;;;;28.67;20.73;;;16.80;83.80;;;;;;5011649;28;20247;-79
2022/03/25 10:46:02;;;;;;;31.80;22.17;;;16.70;83.20;;;;;;5009173;28;20202;-81
2022/03/25 10:48:30;;;;;;;28.83;21.47;;;16.60;84.20;;;;;;5014333;28;20579;-80
2022/03/25 10:50:59;;;;;;;29.10;19.50;;;16.50;83.30;;;;;;5010828;28;20294;-82
2022/03/25 10:53:27;;;;;;;25.00;19.77;;;16.60;83.40;;;;;;5007853;28;20209;-82
2022/03/25 10:55:55;;;;;;;27.37;20.17;;;16.60;81.10;;;;;;5015688;28;20213;-80
2022/03/25 10:58:22;;;;;;;24.73;18.57;;;16.70;83.50;;;;;;5010916;28;20195;-82
2022/03/25 11:00:49;;;;;;;28.00;19.90;;;16.90;85.20;;;;;;5014039;28;20227;-80
2022/03/25 11:03:17;;;;;;;28.33;19.73;;;16.90;82.80;;;;;;5011595;28;20286;-80
2022/03/25 11:05:46;;;;;;;25.57;18.53;;;16.80;81.60;;;;;;5011919;28;20256;-82
2022/03/25 11:08:13;;;;;;;27.13;19.43;;;16.70;83.00;;;;;;5011519;28;20248;-80
2022/03/25 11:10:40;;;;;;;26.27;19.33;;;16.80;81.70;;;;;;5004789;28;20228;-79
2022/03/25 11:13:08;;;;;;;25.53;19.97;;;16.70;77.00;;;;;;5004795;28;20311;-79
2022/03/25 11:15:37;;;;;;;28.73;20.77;;;16.50;75.40;;;;;;5006464;28;20216;-82
2022/03/25 11:18:04;;;;;;;24.17;19.47;;;16.50;78.40;;;;;;5008534;28;20283;-81
2022/03/25 11:20:31;;;;;;;29.53;23.13;;;16.50;81.00;;;;;;5010112;28;21341;-78
2022/03/25 11:23:13;;;;;;;26.20;20.13;;;16.50;78.50;;;;;;5008516;28;20428;-78
2022/03/25 11:25:44;;;;;;;27.53;18.63;;;16.50;80.70;;;;;;5005144;28;20680;-79
2022/03/25 11:28:16;;;;;;;36.37;22.03;;;16.50;80.50;;;;;;5007927;28;20263;-78
2022/03/25 11:30:43;;;;;;;30.93;21.20;;;16.60;81.90;;;;;;5003848;28;20250;-78
2022/03/25 11:33:10;;;;;;;31.53;21.67;;;16.60;80.80;;;;;;5004327;28;20199;-78
2022/03/25 11:35:39;;;;;;;26.17;19.13;;;16.60;80.90;;;;;;5000651;28;20201;-80
2022/03/25 11:38:19;;;;;;;26.43;18.63;;;16.80;79.30;;;;;;5006943;28;20208;-78
2022/03/25 11:40:48;;;;;;;22.83;18.40;;;16.80;79.10;;;;;;5004890;28;20238;-80
2022/03/25 11:43:16;;;;;;;27.70;19.97;;;16.90;77.00;;;;;;5008835;28;20202;-80
2022/03/25 11:45:44;;;;;;;25.67;20.50;;;16.90;76.80;;;;;;5010714;28;20290;-80
2022/03/25 11:48:36;;;;;;;24.73;19.27;;;17.00;75.40;;;;;;5010570;28;20231;-80
2022/03/25 11:51:23;;;;;;;25.20;19.63;;;17.00;75.00;;;;;;5003469;28;20285;-78
2022/03/25 11:53:51;;;;;;;24.00;18.70;;;17.10;74.80;;;;;;5001893;28;20733;-80
2022/03/25 11:56:18;;;;;;;23.73;18.17;;;17.20;74.50;;;;;;5002404;28;20265;-77
2022/03/25 11:58:58;;;;;;;22.67;17.83;;;17.20;73.90;;;;;;5007222;28;20667;-78
2022/03/25 12:01:26;;;;;;;27.10;18.70;;;17.20;73.10;;;;;;5007416;28;20227;-80
2022/03/25 12:03:56;;;;;;;26.10;18.13;;;17.20;72.30;;;;;;5006580;28;20189;-81
2022/03/25 12:06:24;;;;;;;25.10;17.83;;;17.30;72.60;;;;;;5006110;28;20222;-80
2022/03/25 12:09:05;;;;;;;23.57;17.23;;;17.30;71.80;;;;;;5007074;28;20238;-78
2022/03/25 12:11:52;;;;;;;20.10;15.53;;;17.30;72.10;;;;;;5010088;28;20288;-80
2022/03/25 12:14:19;;;;;;;20.30;16.57;;;17.30;72.60;;;;;;5008027;28;20207;-80
2022/03/25 12:16:57;;;;;;;22.57;16.60;;;17.40;72.30;;;;;;5002481;28;20220;-80
2022/03/25 12:19:47;;;;;;;22.73;17.33;;;17.50;72.50;;;;;;5004098;28;20193;-81
2022/03/25 12:22:40;;;;;;;23.60;17.17;;;17.50;72.70;;;;;;5004992;28;20217;-79
2022/03/25 12:25:14;;;;;;;25.77;18.73;;;17.50;73.10;;;;;;5002782;28;20259;-78
2022/03/25 12:27:41;;;;;;;22.80;17.30;;;17.40;72.60;;;;;;5011965;28;20203;-80
2022/03/25 12:30:09;;;;;;;21.67;16.17;;;17.40;73.30;;;;;;5006359;28;20226;-80
2022/03/25 12:32:38;;;;;;;19.80;15.97;;;17.50;73.30;;;;;;4998379;28;20197;-81
2022/03/25 12:35:07;;;;;;;22.80;16.93;;;17.60;73.30;;;;;;5003098;28;20196;-82
2022/03/25 12:37:43;;;;;;;23.40;16.77;;;17.80;73.90;;;;;;5009958;28;20588;-79
2022/03/25 12:40:14;;;;;;;24.27;18.90;;;17.70;72.00;;;;;;5000544;28;20251;-81
2022/03/25 12:42:40;;;;;;;25.37;17.30;;;17.80;71.30;;;;;;4997105;28;20200;-79
2022/03/25 12:45:09;;;;;;;20.73;16.67;;;17.70;71.00;;;;;;5002937;28;20673;-80